createdAt,value
2022-12-18T00:01:27.579Z,31.10
2022-12-18T00:03:55.878Z,27.95
2022-12-18T00:06:24.356Z,28.50
2022-12-18T00:08:50.983Z,32.28
2022-12-18T00:11:19.783Z,25.00
2022-12-18T00:13:47.225Z,29.63
2022-12-18T00:16:16.252Z,32.63
2022-12-18T00:18:43.855Z,30.17
2022-12-18T00:21:11.997Z,28.60
2022-12-18T00:23:40.571Z,32.78
2022-12-18T00:26:19.683Z,33.60
2022-12-18T00:28:47.034Z,30.13
2022-12-18T00:31:16.745Z,30.23
2022-12-18T00:33:43.865Z,33.05
2022-12-18T00:36:16.560Z,37.33
2022-12-18T00:38:44.453Z,30.47
2022-12-18T00:41:12.751Z,37.15
2022-12-18T00:43:41.129Z,30.92
2022-12-18T00:46:07.964Z,34.13
2022-12-18T00:48:34.509Z,30.70
2022-12-18T00:51:00.996Z,31.20
2022-12-18T00:53:27.484Z,34.15
2022-12-18T00:55:53.972Z,28.92
2022-12-18T00:58:20.471Z,34.88
2022-12-18T01:00:47.112Z,31.17
2022-12-18T01:03:16.451Z,28.60
2022-12-18T01:05:43.478Z,33.47
2022-12-18T01:08:10.775Z,31.95
2022-12-18T01:10:37.346Z,34.35
2022-12-18T01:13:03.945Z,27.83
2022-12-18T01:15:30.379Z,28.90
2022-12-18T01:17:56.886Z,31.17
2022-12-18T01:20:23.454Z,27.92
2022-12-18T01:22:49.891Z,31.05
2022-12-18T01:25:16.559Z,28.13
2022-12-18T01:27:43.044Z,26.93
2022-12-18T01:30:09.966Z,34.90
2022-12-18T01:32:36.578Z,33.65
2022-12-18T01:35:03.236Z,27.77
2022-12-18T01:37:30.041Z,32.92
2022-12-18T01:39:56.616Z,29.87
2022-12-18T01:42:23.510Z,33.72
2022-12-18T01:44:59.226Z,29.02
2022-12-18T01:47:31.520Z,31.48
2022-12-18T01:50:00.448Z,26.40
2022-12-18T01:52:33.621Z,32.77
2022-12-18T01:55:02.353Z,33.00
2022-12-18T01:57:29.540Z,33.15
2022-12-18T02:00:01.821Z,28.90
2022-12-18T02:02:30.052Z,31.90
2022-12-18T02:04:56.787Z,26.93
2022-12-18T02:07:35.320Z,29.85
2022-12-18T02:10:12.085Z,29.55
2022-12-18T02:13:03.903Z,32.92
2022-12-18T02:16:04.290Z,28.25
2022-12-18T02:18:39.336Z,24.30
2022-12-18T02:21:24.089Z,28.85
2022-12-18T02:24:13.772Z,31.05
2022-12-18T02:26:48.664Z,25.85
2022-12-18T02:29:24.778Z,25.75
2022-12-18T02:31:55.336Z,27.43
2022-12-18T02:34:26.943Z,26.40
2022-12-18T02:36:55.306Z,28.63
2022-12-18T02:39:24.676Z,26.58
2022-12-18T02:41:51.780Z,25.60
2022-12-18T02:44:18.323Z,31.40
2022-12-18T02:46:49.789Z,27.77
2022-12-18T02:49:16.204Z,23.25
2022-12-18T02:51:54.758Z,26.63
2022-12-18T02:54:41.744Z,26.00
2022-12-18T02:57:31.369Z,28.30
2022-12-18T03:00:01.891Z,28.33
2022-12-18T03:03:00.649Z,22.88
2022-12-18T03:05:40.001Z,27.90
2022-12-18T03:08:24.326Z,25.10
2022-12-18T03:10:56.974Z,23.17
2022-12-18T03:13:34.304Z,24.58
2022-12-18T03:16:02.453Z,27.75
2022-12-18T03:18:36.640Z,27.35
2022-12-18T03:21:06.510Z,21.27
2022-12-18T03:23:41.605Z,26.57
2022-12-18T03:26:13.020Z,21.20
2022-12-18T03:28:44.894Z,20.88
2022-12-18T03:31:14.654Z,22.95
2022-12-18T03:33:43.793Z,26.73
2022-12-18T03:36:10.633Z,23.17
2022-12-18T03:38:37.161Z,24.83
2022-12-18T03:41:22.566Z,25.83
2022-12-18T03:44:14.850Z,17.83
2022-12-18T03:46:59.625Z,21.88
2022-12-18T03:49:41.789Z,20.83
2022-12-18T03:52:15.686Z,25.83
2022-12-18T03:54:43.607Z,19.65
2022-12-18T03:57:19.116Z,21.27
2022-12-18T03:59:49.768Z,25.30
2022-12-18T04:02:18.353Z,22.57
2022-12-18T04:04:48.692Z,22.30
2022-12-18T04:07:16.719Z,22.65
2022-12-18T04:09:46.513Z,16.10
2022-12-18T04:12:13.024Z,21.83
2022-12-18T04:14:40.354Z,23.27
2022-12-18T04:17:07.082Z,24.40
2022-12-18T04:19:33.848Z,17.00
2022-12-18T04:22:00.338Z,15.05
2022-12-18T04:24:26.904Z,19.30
2022-12-18T04:26:53.441Z,16.70
2022-12-18T04:29:20.050Z,20.98
2022-12-18T04:31:46.485Z,17.42
2022-12-18T04:34:13.036Z,19.55
2022-12-18T04:36:39.584Z,14.45
2022-12-18T04:39:06.060Z,15.70
2022-12-18T04:41:32.547Z,14.60
2022-12-18T04:43:59.067Z,14.38
2022-12-18T04:46:25.558Z,13.73
2022-12-18T04:48:51.995Z,16.75
2022-12-18T04:51:24.631Z,15.07
2022-12-18T04:53:52.717Z,10.82
2022-12-18T04:56:19.247Z,14.10
2022-12-18T04:58:45.892Z,14.65
2022-12-18T05:01:14.656Z,11.32
2022-12-18T05:03:41.679Z,13.47
2022-12-18T05:06:08.912Z,15.13
2022-12-18T05:08:36.041Z,13.25
2022-12-18T05:11:05.293Z,9.93
2022-12-18T05:13:32.918Z,13.55
2022-12-18T05:15:59.840Z,13.97
2022-12-18T05:18:27.064Z,12.25
2022-12-18T05:20:54.260Z,10.13
2022-12-18T05:23:21.985Z,13.20
2022-12-18T05:25:55.178Z,11.23
2022-12-18T05:28:22.845Z,12.40
2022-12-18T05:30:53.700Z,9.18
2022-12-18T05:33:22.113Z,12.80
2022-12-18T05:35:53.112Z,18.02
2022-12-18T05:38:20.754Z,12.57
2022-12-18T05:40:49.179Z,13.07
2022-12-18T05:43:20.993Z,11.57
2022-12-18T05:45:48.848Z,12.52
2022-12-18T05:48:15.950Z,14.32
2022-12-18T05:50:46.376Z,15.98
2022-12-18T05:53:15.328Z,12.33
2022-12-18T05:55:43.792Z,11.27
2022-12-18T05:58:12.307Z,14.48
2022-12-18T06:00:41.437Z,10.65
2022-12-18T06:03:09.677Z,11.02
2022-12-18T06:05:38.281Z,14.77
2022-12-18T06:08:05.366Z,10.18
2022-12-18T06:10:32.260Z,11.00
2022-12-18T06:12:58.863Z,9.02
2022-12-18T06:15:25.573Z,12.13
2022-12-18T06:17:52.547Z,12.63
2022-12-18T06:20:19.783Z,11.07
2022-12-18T06:22:46.588Z,10.38
2022-12-18T06:25:13.072Z,14.13
2022-12-18T06:27:39.739Z,13.52
2022-12-18T06:30:07.179Z,9.57
2022-12-18T06:32:33.748Z,11.95
2022-12-18T06:35:00.217Z,12.65
2022-12-18T06:37:27.340Z,9.30
2022-12-18T06:39:57.549Z,9.95
2022-12-18T06:42:25.004Z,11.67
2022-12-18T06:44:51.576Z,10.77
2022-12-18T06:47:18.160Z,15.82
2022-12-18T06:49:44.635Z,7.78
2022-12-18T06:52:11.119Z,8.52
2022-12-18T06:54:37.728Z,9.50
2022-12-18T06:57:04.365Z,10.02
2022-12-18T06:59:30.887Z,11.65
2022-12-18T07:01:57.514Z,11.38
2022-12-18T07:04:29.311Z,8.30
2022-12-18T07:06:55.719Z,9.53
2022-12-18T07:09:22.259Z,14.00
2022-12-18T07:11:48.715Z,12.05
2022-12-18T07:14:15.140Z,11.38
2022-12-18T07:16:41.872Z,8.00
2022-12-18T07:19:08.519Z,10.57
2022-12-18T07:21:35.027Z,8.10
2022-12-18T07:24:01.660Z,9.15
2022-12-18T07:26:28.166Z,11.77
2022-12-18T07:28:58.660Z,15.35
2022-12-18T07:31:26.634Z,11.37
2022-12-18T07:33:53.584Z,7.97
2022-12-18T07:36:20.843Z,8.07
2022-12-18T07:38:52.685Z,7.95
2022-12-18T07:41:19.784Z,11.52
2022-12-18T07:43:46.597Z,14.60
2022-12-18T07:46:17.580Z,13.43
2022-12-18T07:48:46.198Z,15.05
2022-12-18T07:51:17.241Z,11.38
2022-12-18T07:53:45.017Z,10.10
2022-12-18T07:56:30.395Z,11.33
2022-12-18T07:58:58.124Z,12.77
2022-12-18T08:01:25.330Z,11.73
2022-12-18T08:03:52.522Z,10.90
2022-12-18T08:06:22.448Z,11.48
2022-12-18T08:08:55.370Z,11.90
2022-12-18T08:11:22.138Z,13.00
2022-12-18T08:13:48.649Z,11.50
2022-12-18T08:16:16.034Z,9.75
2022-12-18T08:18:42.576Z,10.32
2022-12-18T08:21:14.228Z,11.87
2022-12-18T08:23:43.412Z,13.50
2022-12-18T08:26:11.492Z,12.52
2022-12-18T08:28:38.182Z,12.60
2022-12-18T08:31:05.532Z,10.70
2022-12-18T08:33:32.784Z,10.53
2022-12-18T08:36:00.438Z,13.82
2022-12-18T08:38:27.027Z,11.13
2022-12-18T08:41:04.563Z,18.15
2022-12-18T08:43:49.607Z,12.18
2022-12-18T08:46:16.255Z,12.37
2022-12-18T08:48:43.000Z,13.95
2022-12-18T08:51:10.607Z,9.52
2022-12-18T08:53:37.984Z,10.02
2022-12-18T08:56:05.528Z,11.93
2022-12-18T08:58:32.046Z,8.37
2022-12-18T09:01:06.849Z,10.15
2022-12-18T09:03:34.002Z,10.25
2022-12-18T09:06:00.522Z,16.15
2022-12-18T09:08:27.470Z,9.23
2022-12-18T09:10:54.151Z,10.13
2022-12-18T09:13:20.678Z,12.05
2022-12-18T09:15:50.443Z,11.38
2022-12-18T09:18:18.596Z,14.05
2022-12-18T09:20:45.496Z,12.60
2022-12-18T09:23:12.705Z,16.07
2022-12-18T09:25:39.791Z,13.45
2022-12-18T09:28:11.317Z,10.05
2022-12-18T09:30:42.370Z,14.73
2022-12-18T09:33:09.083Z,15.35
2022-12-18T09:35:43.407Z,9.53
2022-12-18T09:38:14.159Z,15.80
2022-12-18T09:40:48.394Z,15.85
2022-12-18T09:43:20.764Z,11.93
2022-12-18T09:45:52.126Z,10.00
2022-12-18T09:48:24.779Z,11.03
2022-12-18T09:50:56.748Z,12.52
2022-12-18T09:53:27.779Z,12.95
2022-12-18T09:55:55.694Z,12.27
2022-12-18T09:58:41.238Z,15.45
2022-12-18T10:01:13.079Z,15.27
2022-12-18T10:03:39.606Z,10.23
2022-12-18T10:06:19.466Z,11.05
2022-12-18T10:09:01.491Z,10.02
2022-12-18T10:12:00.365Z,12.27
2022-12-18T10:14:54.274Z,10.60
2022-12-18T10:17:26.877Z,10.90
2022-12-18T10:20:28.992Z,12.40
2022-12-18T10:22:55.489Z,8.98
2022-12-18T10:25:27.977Z,9.55
2022-12-18T10:27:58.718Z,9.47
2022-12-18T10:30:26.511Z,10.95
2022-12-18T10:32:53.464Z,9.02
2022-12-18T10:35:23.692Z,9.85
2022-12-18T10:38:12.569Z,9.60
2022-12-18T10:40:59.615Z,8.13
2022-12-18T10:43:27.536Z,8.73
2022-12-18T10:46:03.265Z,10.52
2022-12-18T10:48:32.153Z,10.93
2022-12-18T10:51:10.935Z,12.60
2022-12-18T10:53:42.626Z,10.23
2022-12-18T10:56:10.607Z,11.93
2022-12-18T10:58:39.858Z,10.07
2022-12-18T11:01:17.365Z,10.10
2022-12-18T11:03:47.042Z,9.60
2022-12-18T11:06:18.741Z,8.53
2022-12-18T11:08:59.443Z,9.13
2022-12-18T11:11:26.669Z,11.48
2022-12-18T11:14:07.737Z,7.18
2022-12-18T11:16:37.874Z,11.65
2022-12-18T11:19:42.305Z,10.57
2022-12-18T11:22:25.724Z,10.18
2022-12-18T11:25:30.973Z,7.38
2022-12-18T11:27:55.904Z,9.63
2022-12-18T11:30:24.714Z,8.05
2022-12-18T11:33:32.940Z,9.47
2022-12-18T11:36:05.233Z,8.57
2022-12-18T11:38:43.596Z,9.35
2022-12-18T11:41:46.822Z,10.80
2022-12-18T11:44:20.948Z,9.25
2022-12-18T11:46:56.137Z,7.07
2022-12-18T11:49:35.778Z,11.40
2022-12-18T11:52:02.143Z,9.75
2022-12-18T11:54:28.642Z,10.90
2022-12-18T11:57:25.956Z,10.07
2022-12-18T12:00:10.804Z,8.47
2022-12-18T12:02:46.205Z,8.02
2022-12-18T12:05:30.444Z,9.90
2022-12-18T12:08:10.096Z,8.43
2022-12-18T12:10:39.572Z,11.00
2022-12-18T12:13:18.204Z,9.00
2022-12-18T12:16:06.302Z,7.15
2022-12-18T12:18:35.669Z,9.10
2022-12-18T12:21:14.231Z,8.43
2022-12-18T12:24:37.364Z,10.77
2022-12-18T12:27:13.208Z,10.80
2022-12-18T12:30:10.511Z,9.68
2022-12-18T12:32:37.129Z,8.13
2022-12-18T12:35:17.603Z,12.38
2022-12-18T12:37:59.392Z,6.72
2022-12-18T12:43:31.849Z,9.65
2022-12-18T12:46:04.191Z,10.88
2022-12-18T12:48:30.968Z,9.82
2022-12-18T12:50:58.972Z,10.20
2022-12-18T12:53:34.632Z,8.80
2022-12-18T12:56:02.959Z,10.48
2022-12-18T12:58:33.202Z,8.50
2022-12-18T13:01:11.099Z,12.38
2022-12-18T13:03:57.297Z,9.27
2022-12-18T13:06:38.341Z,12.07
2022-12-18T13:09:09.502Z,10.48
2022-12-18T13:12:04.447Z,12.60
2022-12-18T13:14:35.375Z,11.70
2022-12-18T13:17:20.865Z,9.98
2022-12-18T13:19:52.328Z,12.07
2022-12-18T13:22:31.743Z,12.90
2022-12-18T13:24:58.699Z,15.30
2022-12-18T13:27:44.340Z,10.35
2022-12-18T13:30:33.779Z,7.82
2022-12-18T13:33:15.456Z,9.10
2022-12-18T13:35:49.067Z,8.65
2022-12-18T13:38:38.223Z,8.05
2022-12-18T13:41:19.779Z,9.90
2022-12-18T13:43:52.076Z,10.95
2022-12-18T13:46:42.918Z,9.47
2022-12-18T13:49:15.196Z,9.75
2022-12-18T13:51:45.213Z,16.65
2022-12-18T13:54:36.594Z,13.15
2022-12-18T13:57:04.770Z,11.77
2022-12-18T13:59:39.277Z,13.67
2022-12-18T14:02:22.314Z,13.48
2022-12-18T14:04:51.402Z,11.63
2022-12-18T14:07:21.910Z,11.65
2022-12-18T14:10:12.169Z,11.77
2022-12-18T14:13:01.009Z,14.83
2022-12-18T14:15:35.687Z,17.08
2022-12-18T14:18:09.690Z,11.35
2022-12-18T14:20:36.513Z,14.65
2022-12-18T14:23:03.027Z,12.30
2022-12-18T14:25:31.212Z,12.27
2022-12-18T14:28:23.834Z,13.20
2022-12-18T14:30:50.782Z,11.30
2022-12-18T14:33:20.288Z,12.60
2022-12-18T14:35:57.717Z,14.38
2022-12-18T14:38:27.143Z,14.07
2022-12-18T14:41:14.743Z,14.48
2022-12-18T14:43:46.527Z,12.20
2022-12-18T14:46:38.419Z,13.98
2022-12-18T14:49:20.512Z,14.65
2022-12-18T14:51:53.404Z,8.73
2022-12-18T14:54:22.028Z,10.50
2022-12-18T14:56:52.309Z,11.55
2022-12-18T14:59:27.097Z,12.27
2022-12-18T15:02:23.183Z,11.85
2022-12-18T15:05:17.310Z,14.33
2022-12-18T15:07:51.384Z,13.18
2022-12-18T15:10:21.642Z,10.52
2022-12-18T15:12:57.533Z,13.50
2022-12-18T15:15:40.473Z,13.38
2022-12-18T15:18:11.358Z,9.20
2022-12-18T15:20:51.481Z,15.07
2022-12-18T15:23:36.532Z,13.15
2022-12-18T15:26:09.933Z,12.73
2022-12-18T15:28:45.997Z,11.93
2022-12-18T15:31:13.261Z,15.17
2022-12-18T15:33:51.371Z,12.85
2022-12-18T15:36:18.985Z,15.82
2022-12-18T15:38:56.071Z,15.75
2022-12-18T15:41:34.525Z,13.45
2022-12-18T15:44:02.746Z,27.27
2022-12-18T15:46:31.805Z,40.75
2022-12-18T15:49:02.178Z,32.95
2022-12-18T15:51:30.761Z,35.03
2022-12-18T15:53:59.548Z,52.10
2022-12-18T15:56:44.998Z,37.20
2022-12-18T15:59:18.043Z,17.20
2022-12-18T16:01:47.083Z,19.98
2022-12-18T16:04:15.350Z,26.10
2022-12-18T16:07:12.618Z,16.90
2022-12-18T16:09:28.656Z,16.97
2022-12-18T16:11:55.332Z,12.20
2022-12-18T16:14:30.332Z,10.90
2022-12-18T16:17:02.582Z,15.68
2022-12-18T16:19:30.262Z,12.55
2022-12-18T16:21:58.538Z,15.23
2022-12-18T16:24:27.354Z,17.88
2022-12-18T16:26:54.644Z,13.85
2022-12-18T16:29:25.719Z,14.85
2022-12-18T16:31:52.541Z,14.80
2022-12-18T16:34:32.132Z,13.70
2022-12-18T16:37:07.081Z,14.90
2022-12-18T16:39:35.471Z,17.27
2022-12-18T16:42:17.111Z,12.13
2022-12-18T16:44:44.565Z,13.70
2022-12-18T16:47:11.776Z,11.93
2022-12-18T16:49:41.829Z,14.85
2022-12-18T16:52:08.720Z,11.80
2022-12-18T16:54:36.760Z,23.20
2022-12-18T16:57:05.209Z,17.33
2022-12-18T16:59:31.771Z,21.43
2022-12-18T17:01:58.699Z,12.90
2022-12-18T17:04:25.401Z,15.88
2022-12-18T17:06:53.872Z,15.90
2022-12-18T17:09:27.817Z,16.30
2022-12-18T17:11:54.623Z,20.13
2022-12-18T17:14:23.571Z,20.60
2022-12-18T17:17:19.101Z,16.00
2022-12-18T17:19:38.789Z,16.77
2022-12-18T17:22:05.330Z,16.10
2022-12-18T17:24:35.166Z,17.57
2022-12-18T17:27:02.793Z,17.90
2022-12-18T17:29:29.346Z,19.25
2022-12-18T17:31:55.944Z,16.00
2022-12-18T17:34:23.902Z,21.77
2022-12-18T17:36:50.397Z,23.07
2022-12-18T17:39:20.046Z,12.77
2022-12-18T17:41:47.431Z,17.45
2022-12-18T17:44:14.407Z,14.50
2022-12-18T17:46:41.071Z,16.63
2022-12-18T17:49:07.577Z,16.33
2022-12-18T17:51:34.047Z,16.27
2022-12-18T17:54:00.684Z,16.42
2022-12-18T17:56:27.737Z,21.90
2022-12-18T17:58:54.301Z,18.05
2022-12-18T18:01:24.017Z,19.50
2022-12-18T18:03:53.542Z,19.52
2022-12-18T18:06:20.597Z,17.88
2022-12-18T18:08:47.197Z,17.77
2022-12-18T18:11:36.254Z,13.50
2022-12-18T18:14:05.165Z,15.90
2022-12-18T18:16:35.636Z,15.60
2022-12-18T18:19:05.386Z,16.58
2022-12-18T18:21:32.913Z,17.35
2022-12-18T18:24:03.270Z,20.00
2022-12-18T18:26:34.045Z,16.00
2022-12-18T18:29:02.516Z,18.23
2022-12-18T18:31:32.018Z,18.58
2022-12-18T18:34:00.991Z,19.08
2022-12-18T18:36:27.631Z,24.13
2022-12-18T18:38:54.294Z,17.43
2022-12-18T18:41:22.256Z,18.00
2022-12-18T18:43:48.700Z,16.50
2022-12-18T18:46:16.533Z,16.58
2022-12-18T18:48:43.944Z,17.02
2022-12-18T18:51:21.412Z,17.10
2022-12-18T18:53:50.728Z,15.85
2022-12-18T18:56:45.390Z,14.52
2022-12-18T18:59:06.189Z,20.25
2022-12-18T19:01:33.251Z,18.50
2022-12-18T19:04:00.780Z,20.23
2022-12-18T19:06:28.404Z,15.43
2022-12-18T19:08:57.141Z,14.35
2022-12-18T19:11:43.778Z,14.98
2022-12-18T19:14:12.570Z,13.90
2022-12-18T19:16:40.015Z,17.17
2022-12-18T19:19:07.532Z,30.83
2022-12-18T19:21:35.051Z,19.58
2022-12-18T19:24:02.663Z,16.88
2022-12-18T19:26:29.586Z,16.63
2022-12-18T19:29:06.644Z,15.77
2022-12-18T19:31:36.450Z,12.50
2022-12-18T19:34:05.457Z,16.98
2022-12-18T19:36:33.462Z,20.48
2022-12-18T19:39:01.586Z,33.05
2022-12-18T19:41:31.257Z,21.80
2022-12-18T19:44:00.955Z,20.17
2022-12-18T19:46:34.720Z,23.33
2022-12-18T19:49:01.250Z,18.00
2022-12-18T19:51:29.930Z,21.67
2022-12-18T19:53:59.945Z,17.73
2022-12-18T19:56:31.134Z,17.27
2022-12-18T19:58:57.948Z,18.63
2022-12-18T20:01:26.206Z,17.50
2022-12-18T20:03:55.315Z,21.45
2022-12-18T20:06:32.288Z,15.70
2022-12-18T20:09:01.667Z,23.02
2022-12-18T20:11:32.237Z,24.75
2022-12-18T20:14:01.542Z,23.38
2022-12-18T20:16:28.570Z,20.95
2022-12-18T20:18:56.595Z,19.27
2022-12-18T20:21:23.603Z,18.88
2022-12-18T20:23:50.245Z,21.30
2022-12-18T20:26:16.880Z,19.90
2022-12-18T20:28:43.434Z,19.25
2022-12-18T20:31:13.220Z,21.33
2022-12-18T20:33:41.848Z,20.63
2022-12-18T20:36:14.333Z,18.92
2022-12-18T20:38:42.544Z,19.80
2022-12-18T20:41:16.868Z,19.85
2022-12-18T20:43:44.694Z,26.50
2022-12-18T20:46:14.126Z,20.15
2022-12-18T20:48:41.039Z,19.50
2022-12-18T20:51:10.231Z,21.08
2022-12-18T20:53:38.537Z,17.88
2022-12-18T20:56:10.463Z,17.37
2022-12-18T20:58:37.166Z,17.15
2022-12-18T21:01:15.594Z,19.70
2022-12-18T21:03:44.019Z,19.52
2022-12-18T21:06:10.719Z,17.88
2022-12-18T21:08:37.923Z,19.87
2022-12-18T21:11:38.454Z,19.60
2022-12-18T21:14:09.511Z,18.75
2022-12-18T21:16:36.105Z,15.35
2022-12-18T21:19:02.841Z,18.25
2022-12-18T21:21:29.544Z,17.83
2022-12-18T21:23:58.950Z,19.10
2022-12-18T21:26:28.072Z,22.38
2022-12-18T21:28:56.536Z,20.52
2022-12-18T21:31:25.652Z,20.95
2022-12-18T21:33:54.090Z,18.37
2022-12-18T21:36:28.176Z,19.42
2022-12-18T21:38:55.607Z,20.20
2022-12-18T21:41:42.284Z,20.05
2022-12-18T21:44:11.388Z,21.35
2022-12-18T21:46:44.090Z,19.80
2022-12-18T21:49:14.419Z,17.92
2022-12-18T21:51:41.432Z,22.23
2022-12-18T21:54:07.907Z,14.38
2022-12-18T21:56:49.492Z,14.73
2022-12-18T21:59:19.751Z,13.47
2022-12-18T22:01:47.313Z,14.98
2022-12-18T22:04:14.194Z,20.13
2022-12-18T22:06:42.688Z,16.80
2022-12-18T22:09:12.247Z,16.95
2022-12-18T22:11:38.942Z,19.50
2022-12-18T22:14:05.465Z,15.90
2022-12-18T22:16:32.028Z,19.17
2022-12-18T22:18:58.651Z,18.90
2022-12-18T22:21:30.551Z,18.10
2022-12-18T22:23:59.651Z,14.70
2022-12-18T22:26:28.069Z,20.60
2022-12-18T22:29:13.012Z,16.25
2022-12-18T22:31:40.049Z,19.63
2022-12-18T22:34:07.257Z,19.52
2022-12-18T22:36:48.050Z,18.77
2022-12-18T22:39:23.512Z,20.60
2022-12-18T22:41:51.423Z,21.80
2022-12-18T22:44:18.293Z,20.52
2022-12-18T22:47:05.450Z,20.45
2022-12-18T22:49:33.914Z,21.73
2022-12-18T22:52:03.119Z,19.75
2022-12-18T22:54:29.876Z,18.15
2022-12-18T22:56:57.017Z,17.40
2022-12-18T22:59:23.798Z,17.50
2022-12-18T23:01:58.379Z,17.97
2022-12-18T23:04:35.884Z,14.52
2022-12-18T23:07:02.582Z,17.25
2022-12-18T23:09:29.092Z,21.67
2022-12-18T23:11:55.590Z,20.20
2022-12-18T23:14:22.106Z,16.87
2022-12-18T23:16:48.902Z,20.75
2022-12-18T23:19:17.221Z,20.13
2022-12-18T23:21:43.848Z,18.67
2022-12-18T23:24:10.775Z,20.67
2022-12-18T23:26:37.919Z,20.47
2022-12-18T23:29:05.400Z,19.90
2022-12-18T23:31:34.568Z,22.77
2022-12-18T23:34:02.580Z,20.98
2022-12-18T23:36:30.816Z,23.33
2022-12-18T23:39:02.517Z,20.60
2022-12-18T23:41:31.303Z,19.13
2022-12-18T23:43:59.364Z,21.77
2022-12-18T23:46:31.344Z,19.52
2022-12-18T23:48:59.350Z,24.63
2022-12-18T23:51:26.436Z,21.37
2022-12-18T23:53:54.375Z,20.90
2022-12-18T23:56:21.556Z,20.30
2022-12-18T23:58:48.564Z,18.48
